Last 48 Hours

Stanford Met Tower

Hourly Data | America/Los_Angeles
as of 7/30/21 9:42 AM PDT
Date & Time Temp (°F) Upper Temp (°F) Temp Inversion (°F) RH (%) Dew Pt (°F) Wind Dir (°) Wind Spd (mph) Wind Gust (mph) Latest Rain (In) ETo Hr (in) ETo 2pm (In) Daily Rain (In) Daily Min Temp (°F) Daily Max Temp (°F)
7/30/21 - 0900 63.2 62.3 -1.9 87 59.3 ENE | 63 1.4 6.5 0.00 0.004 0.18 0.00 57.7 65.2
7/30/21 - 0800 61.6 60.8 -1.3 91 58.9 NNE | 33 2.9 5.7 0.00 0.001 0.18 0.00 57.7 62.8
7/30/21 - 0700 61.1 60.6 -0.7 91 58.5 N | 356 1.1 4.7 0.00 0.000 0.18 0.00 57.7 62.0
7/30/21 - 0600 60.2 60.1 -0.7 92 57.9 N | 11 2.2 4.0 0.00 0.000 0.18 0.00 57.7 61.7
7/30/21 - 0500 59.0 59.8 0.5 95 57.5 NE | 41 1.3 3.7 0.00 0.000 0.18 0.00 57.7 61.7
7/30/21 - 0400 58.3 59.8 1.6 94 56.6 N | 351 1.1 2.7 0.00 0.000 0.18 0.00 57.7 61.7
7/30/21 - 0300 59.1 60.5 1.5 93 57.0 N | 4 0.8 2.2 0.00 0.000 0.18 0.00 58.3 61.7
7/30/21 - 0200 60.6 61.4 0.9 90 57.7 NNE | 22 1.2 2.3 0.00 0.000 0.18 0.00 59.7 61.7
7/30/21 - 0100 62.2 62.3 0.2 86 58.1 NNE | 23 2.2 5.7 0.00 0.000 0.18 0.00 60.5 80.9
7/30/21 - 0000 62.8 63.1 0.4 86 58.6 NNE | 25 2.2 5.0 0.00 0.000 0.18 0.00 60.5 80.9
7/29/21 - 2300 63.6 64.3 0.3 87 59.6 NNW | 345 2.1 4.0 0.00 0.000 0.18 0.00 60.5 80.9
7/29/21 - 2200 65.1 65.3 -0.2 82 59.6 N | 5 2.6 5.6 0.00 0.000 0.18 0.00 60.5 80.9
7/29/21 - 2100 68.7 68.3 -0.7 74 60.0 N | 11 3.6 6.7 0.00 0.001 0.18 0.00 60.5 80.9
7/29/21 - 2000 72.9 71.7 -2.4 66 60.8 NNE | 29 3.5 5.8 0.00 0.003 0.18 0.00 60.5 80.9
7/29/21 - 1900 74.1 72.6 -3.2 63 60.9 NNE | 33 3.8 6.9 0.00 0.006 0.18 0.00 60.5 80.9
7/29/21 - 1800 75.5 74.0 -4.1 61 61.3 N | 10 5.0 9.1 0.00 0.008 0.18 0.00 60.5 80.9
7/29/21 - 1700 78.4 76.5 -5.6 56 61.6 N | 7 5.2 8.8 0.00 0.012 0.18 0.00 60.5 80.9
7/29/21 - 1600 79.4 77.3 -7.6 55 61.8 N | 5 5.6 10.5 0.00 0.022 0.18 0.00 60.5 80.6
7/29/21 - 1500 78.5 76.2 -8.2 58 62.5 NNE | 19 6.7 12.8 0.00 0.025 0.18 0.00 60.5 79.6
7/29/21 - 1400 77.4 75.4 -7.7 61 62.8 N | 360 4.8 10.2 0.00 0.025 0.19 0.00 60.5 79.0
7/29/21 - 1300 73.9 71.9 -6.8 68 62.5 N | 1 5.0 9.8 0.00 0.020 0.19 0.00 60.5 76.0
7/29/21 - 1200 72.4 70.3 -6.0 70 62.2 N | 7 5.6 10.6 0.00 0.014 0.19 0.00 60.5 73.9
7/29/21 - 1100 72.7 70.6 -6.5 68 61.6 NNE | 17 3.8 8.6 0.00 0.016 0.19 0.00 60.5 73.9
7/29/21 - 1000 68.9 67.1 -4.6 74 60.5 NNE | 25 1.7 6.4 0.00 0.013 0.19 0.00 60.5 71.6
7/29/21 - 0900 64.8 63.7 -2.1 84 59.9 ESE | 105 1.4 5.6 0.00 0.007 0.19 0.00 60.5 67.0
7/29/21 - 0800 63.1 62.4 -0.8 87 59.2 ESE | 103 1.6 4.9 0.00 0.000 0.19 0.00 60.5 64.2
7/29/21 - 0700 62.0 61.5 -0.6 89 58.8 NNE | 30 0.9 3.4 0.00 0.000 0.19 0.00 60.5 62.9
7/29/21 - 0600 61.7 61.2 -0.7 90 58.7 N | 10 1.4 3.6 0.00 0.000 0.19 0.00 60.5 62.2
7/29/21 - 0500 61.5 60.9 -0.6 90 58.4 N | 358 1.6 3.9 0.00 0.000 0.19 0.00 60.5 62.2
7/29/21 - 0400 61.2 60.8 -0.6 90 58.2 N | 2 1.8 3.7 0.00 0.000 0.19 0.00 60.5 62.2
7/29/21 - 0300 60.7 60.9 0.0 90 58.0 NNE | 13 1.8 4.7 0.00 0.000 0.19 0.00 60.5 62.2
7/29/21 - 0200 61.3 61.4 0.2 89 58.0 NNE | 29 2.2 5.9 0.00 0.000 0.19 0.00 60.6 62.2
7/29/21 - 0100 62.0 62.1 0.0 88 58.5 NNE | 19 2.4 4.4 0.00 0.000 0.19 0.00 55.7 81.4
7/29/21 - 0000 62.8 62.6 -0.1 87 58.8 N | 8 2.5 4.7 0.00 0.000 0.19 0.00 55.7 81.4
7/28/21 - 2300 63.4 63.4 0.0 85 58.8 NNE | 25 2.8 5.3 0.00 0.000 0.19 0.00 55.7 81.4
7/28/21 - 2200 64.6 64.3 -0.3 82 59.0 NNE | 25 3.3 7.6 0.00 0.000 0.19 0.00 55.7 81.4
7/28/21 - 2100 68.0 67.4 -0.9 76 60.4 ENE | 58 3.9 6.6 0.00 0.000 0.19 0.00 55.7 81.4
7/28/21 - 2000 70.4 69.2 -2.1 71 60.4 ENE | 72 3.7 7.6 0.00 0.001 0.19 0.00 55.7 81.4
7/28/21 - 1900 73.4 71.7 -3.5 64 60.4 NE | 46 5.7 9.4 0.00 0.005 0.19 0.00 55.7 81.4
7/28/21 - 1800 76.8 74.6 -5.5 58 61.1 NE | 40 6.0 10.9 0.00 0.013 0.19 0.00 55.7 81.4
7/28/21 - 1700 78.0 75.8 -6.0 57 61.3 NNE | 24 6.4 12.2 0.00 0.017 0.19 0.00 55.7 81.4
7/28/21 - 1600 79.2 76.7 -7.6 54 60.9 N | 10 6.6 12.0 0.00 0.022 0.19 0.00 55.7 81.4
7/28/21 - 1500 78.0 76.1 -7.3 57 61.4 N | 1 5.6 11.1 0.00 0.022 0.19 0.00 55.7 81.4
7/28/21 - 1400 76.5 74.6 -7.2 61 61.9 N | 3 5.9 12.5 0.00 0.020 0.19 0.00 55.7 78.2
7/28/21 - 1300 77.2 75.0 -7.5 60 62.2 N | 1 4.7 9.8 0.00 0.023 0.19 0.00 55.7 78.2
7/28/21 - 1200 75.4 73.0 -7.2 60 60.6 NNE | 21 2.6 6.8 0.00 0.022 0.19 0.00 55.7 78.0
7/28/21 - 1100 69.5 67.3 -4.7 69 58.9 NE | 50 0.8 3.4 0.00 0.016 0.19 0.00 55.7 73.4
7/28/21 - 1000 65.6 63.9 -2.9 77 58.2 ENE | 70 3.3 8.6 0.00 0.007 0.19 0.00 55.7 67.3
7/28/21 - 0900 64.2 63.0 -2.1 77 56.9 ENE | 62 1.8 6.9 0.00 0.006 0.19 0.00 55.7 65.7
Max 79.4 77.3 1.6 95 62.8 - 6.7 12.8 0.00 0.025 0.19 0.00 60.6 81.4
Avg 68.0 67.1 -2.7 76 59.7 - 3.2 6.8 0.00 0.007 0.19 - - -
Min 58.3 59.8 -8.2 54 56.6 - 0.8 2.2 0.00 0.000 0.18 0.00 55.7 61.7
Total - - - - - - - - 0.00 0.351 - - - -